createdAt,value
2022-11-24T00:01:16.333Z,100126.75
2022-11-24T00:03:47.570Z,100136.72
2022-11-24T00:06:15.673Z,100117.84
2022-11-24T00:08:44.865Z,100105.97
2022-11-24T00:11:17.359Z,100123.81
2022-11-24T00:13:44.485Z,100123.25
2022-11-24T00:16:11.150Z,100134.84
2022-11-24T00:18:38.883Z,100136.72
2022-11-24T00:21:05.755Z,100146.72
2022-11-24T00:23:33.167Z,100142.94
2022-11-24T00:26:10.050Z,100140.50
2022-11-24T00:28:37.564Z,100137.81
2022-11-24T00:31:06.108Z,100136.72
2022-11-24T00:33:33.460Z,100144.00
2022-11-24T00:36:00.981Z,100146.72
2022-11-24T00:38:27.503Z,100133.50
2022-11-24T00:40:53.953Z,100145.09
2022-11-24T00:43:20.399Z,100129.72
2022-11-24T00:45:47.212Z,100142.94
2022-11-24T00:48:14.210Z,100152.91
2022-11-24T00:50:40.689Z,100154.00
2022-11-24T00:53:07.132Z,100155.59
2022-11-24T00:55:33.621Z,100164.78
2022-11-24T00:58:00.093Z,100155.59
2022-11-24T01:00:26.670Z,100143.75
2022-11-24T01:02:53.494Z,100157.50
2022-11-24T01:05:20.047Z,100145.91
2022-11-24T01:07:46.521Z,100156.69
2022-11-24T01:10:13.002Z,100162.09
2022-11-24T01:12:40.716Z,100157.75
2022-11-24T01:15:07.665Z,100153.19
2022-11-24T01:17:34.202Z,100164.78
2022-11-24T01:20:00.653Z,100177.47
2022-11-24T01:22:27.525Z,100159.38
2022-11-24T01:24:53.982Z,100185.84
2022-11-24T01:27:20.424Z,100186.09
2022-11-24T01:29:46.954Z,100195.25
2022-11-24T01:32:13.504Z,100192.56
2022-11-24T01:34:39.929Z,100202.53
2022-11-24T01:37:06.380Z,100194.69
2022-11-24T01:39:32.895Z,100199.84
2022-11-24T01:42:02.181Z,100193.63
2022-11-24T01:44:30.843Z,100194.69
2022-11-24T01:47:24.984Z,100211.44
2022-11-24T01:49:54.381Z,100201.72
2022-11-24T01:52:32.982Z,100219.75
2022-11-24T01:55:06.992Z,100207.13
2022-11-24T01:57:41.514Z,100210.88
2022-11-24T02:00:11.402Z,100207.13
2022-11-24T02:02:38.309Z,100212.50
2022-11-24T02:05:14.043Z,100210.88
2022-11-24T02:07:40.661Z,100235.94
2022-11-24T02:10:12.246Z,100219.53
2022-11-24T02:12:43.327Z,100241.09
2022-11-24T02:15:11.791Z,100226.53
2022-11-24T02:17:38.237Z,100218.72
2022-11-24T02:20:07.853Z,100222.47
2022-11-24T02:22:56.861Z,100216.03
2022-11-24T02:25:37.175Z,100229.50
2022-11-24T02:28:07.219Z,100218.97
2022-11-24T02:30:34.198Z,100218.16
2022-11-24T02:33:02.056Z,100242.19
2022-11-24T02:35:28.803Z,100223.84
2022-11-24T02:37:55.502Z,100214.94
2022-11-24T02:40:25.625Z,100218.97
2022-11-24T02:42:56.540Z,100240.28
2022-11-24T02:45:24.029Z,100236.53
2022-11-24T02:47:50.503Z,100235.94
2022-11-24T02:50:17.057Z,100244.31
2022-11-24T02:52:43.577Z,100241.34
2022-11-24T02:55:10.066Z,100239.72
2022-11-24T02:57:36.655Z,100247.81
2022-11-24T03:00:04.075Z,100255.91
2022-11-24T03:02:30.582Z,100254.03
2022-11-24T03:04:57.132Z,100254.81
2022-11-24T03:07:23.632Z,100264.00
2022-11-24T03:09:50.297Z,100262.09
2022-11-24T03:12:16.770Z,100268.59
2022-11-24T03:14:43.271Z,100276.66
2022-11-24T03:17:09.782Z,100282.06
2022-11-24T03:19:36.444Z,100287.19
2022-11-24T03:22:02.999Z,100291.78
2022-11-24T03:24:29.702Z,100286.66
2022-11-24T03:26:56.149Z,100289.34
2022-11-24T03:29:23.067Z,100298.25
2022-11-24T03:31:49.617Z,100309.59
2022-11-24T03:34:16.085Z,100299.88
2022-11-24T03:36:42.717Z,100317.13
2022-11-24T03:39:09.247Z,100311.47
2022-11-24T03:41:35.770Z,100319.00
2022-11-24T03:44:02.745Z,100314.44
2022-11-24T03:46:29.248Z,100330.59
2022-11-24T03:48:55.741Z,100330.59
2022-11-24T03:51:22.292Z,100343.03
2022-11-24T03:53:48.766Z,100341.13
2022-11-24T03:56:15.238Z,100345.72
2022-11-24T03:58:41.680Z,100348.41
2022-11-24T04:01:08.356Z,100354.06
2022-11-24T04:03:34.864Z,100371.06
2022-11-24T04:06:01.861Z,100376.19
2022-11-24T04:08:28.285Z,100374.56
2022-11-24T04:10:54.763Z,100384.53
2022-11-24T04:13:24.317Z,100397.22
2022-11-24T04:15:51.606Z,100393.44
2022-11-24T04:18:18.924Z,100391.03
2022-11-24T04:20:45.825Z,100401.53
2022-11-24T04:23:12.376Z,100397.78
2022-11-24T04:25:38.986Z,100413.13
2022-11-24T04:28:05.526Z,100411.53
2022-11-24T04:30:32.026Z,100418.00
2022-11-24T04:32:58.907Z,100422.31
2022-11-24T04:35:25.484Z,100424.19
2022-11-24T04:37:52.022Z,100418.81
2022-11-24T04:40:19.452Z,100422.56
2022-11-24T04:42:54.369Z,100425.81
2022-11-24T04:45:21.414Z,100429.59
2022-11-24T04:47:47.922Z,100429.31
2022-11-24T04:50:14.408Z,100433.38
2022-11-24T04:52:40.948Z,100436.06
2022-11-24T04:55:08.209Z,100438.75
2022-11-24T04:57:34.665Z,100441.44
2022-11-24T05:00:01.114Z,100439.31
2022-11-24T05:02:27.553Z,100444.16
2022-11-24T05:04:54.086Z,100454.94
2022-11-24T05:07:20.609Z,100448.72
2022-11-24T05:10:06.512Z,100457.63
2022-11-24T05:12:33.243Z,100460.31
2022-11-24T05:15:05.000Z,100467.59
2022-11-24T05:17:34.680Z,100473.81
2022-11-24T05:20:01.518Z,100483.78
2022-11-24T05:22:28.939Z,100496.44
2022-11-24T05:24:55.566Z,100486.50
2022-11-24T05:27:22.021Z,100482.94
2022-11-24T05:29:48.542Z,100487.53
2022-11-24T05:32:15.126Z,100496.19
2022-11-24T05:34:41.657Z,100499.97
2022-11-24T05:37:08.322Z,100495.38
2022-11-24T05:39:37.916Z,100490.81
2022-11-24T05:42:25.320Z,100497.00
2022-11-24T05:44:52.509Z,100487.31
2022-11-24T05:47:19.957Z,100494.59
2022-11-24T05:49:46.886Z,100492.44
2022-11-24T05:52:13.932Z,100506.19
2022-11-24T05:54:40.458Z,100503.72
2022-11-24T05:57:06.995Z,100512.63
2022-11-24T05:59:33.857Z,100516.97
2022-11-24T06:02:00.781Z,100526.94
2022-11-24T06:04:27.340Z,100527.75
2022-11-24T06:06:53.861Z,100533.16
2022-11-24T06:09:20.549Z,100535.03
2022-11-24T06:11:48.103Z,100536.06
2022-11-24T06:14:14.604Z,100541.25
2022-11-24T06:16:41.311Z,100543.13
2022-11-24T06:19:09.330Z,100554.72
2022-11-24T06:21:35.878Z,100562.00
2022-11-24T06:24:02.543Z,100563.03
2022-11-24T06:26:29.172Z,100562.00
2022-11-24T06:28:55.692Z,100562.81
2022-11-24T06:31:22.210Z,100566.81
2022-11-24T06:33:48.721Z,100573.03
2022-11-24T06:36:15.421Z,100578.41
2022-11-24T06:38:41.997Z,100586.50
2022-11-24T06:41:12.773Z,100585.69
2022-11-24T06:43:39.458Z,100589.22
2022-11-24T06:46:06.192Z,100587.31
2022-11-24T06:48:33.215Z,100583.00
2022-11-24T06:51:05.162Z,100591.09
2022-11-24T06:53:32.972Z,100613.25
2022-11-24T06:56:01.231Z,100623.44
2022-11-24T06:58:28.135Z,100618.88
2022-11-24T07:00:54.685Z,100628.84
2022-11-24T07:03:21.412Z,100632.34
2022-11-24T07:05:48.098Z,100646.66
2022-11-24T07:08:18.045Z,100653.13
2022-11-24T07:10:44.870Z,100648.53
2022-11-24T07:13:11.319Z,100655.56
2022-11-24T07:15:37.807Z,100654.75
2022-11-24T07:18:04.505Z,100659.91
2022-11-24T07:20:31.099Z,100670.69
2022-11-24T07:22:58.369Z,100670.94
2022-11-24T07:25:25.974Z,100680.91
2022-11-24T07:27:57.493Z,100680.91
2022-11-24T07:30:25.245Z,100677.13
2022-11-24T07:32:58.233Z,100682.53
2022-11-24T07:35:24.748Z,100694.16
2022-11-24T07:37:55.062Z,100700.09
2022-11-24T07:40:21.531Z,100703.06
2022-11-24T07:42:48.060Z,100710.34
2022-11-24T07:45:14.600Z,100715.97
2022-11-24T07:47:41.732Z,100714.06
2022-11-24T07:50:10.140Z,100722.97
2022-11-24T07:52:37.657Z,100717.84
2022-11-24T07:55:04.835Z,100726.75
2022-11-24T07:57:31.325Z,100739.69
2022-11-24T07:59:57.782Z,100740.50
2022-11-24T08:02:24.318Z,100736.47
2022-11-24T08:04:50.778Z,100743.75
2022-11-24T08:07:17.247Z,100745.63
2022-11-24T08:09:43.735Z,100765.31
2022-11-24T08:12:10.206Z,100752.91
2022-11-24T08:14:36.962Z,100746.44
2022-11-24T08:17:03.703Z,100759.94
2022-11-24T08:19:32.221Z,100757.81
2022-11-24T08:21:58.780Z,100756.19
2022-11-24T08:24:25.302Z,100749.13
2022-11-24T08:26:51.787Z,100765.31
2022-11-24T08:29:18.286Z,100775.28
2022-11-24T08:31:44.791Z,100776.94
2022-11-24T08:34:11.349Z,100784.19
2022-11-24T08:36:37.918Z,100793.94
2022-11-24T08:39:04.467Z,100785.84
2022-11-24T08:41:31.628Z,100789.38
2022-11-24T08:43:58.094Z,100800.97
2022-11-24T08:46:24.808Z,100786.91
2022-11-24T08:48:53.693Z,100801.78
2022-11-24T08:51:23.196Z,100807.19
2022-11-24T08:53:53.456Z,100807.19
2022-11-24T08:56:20.011Z,100816.09
2022-11-24T08:58:46.532Z,100808.00
2022-11-24T09:01:15.720Z,100811.50
2022-11-24T09:03:50.806Z,100830.16
2022-11-24T09:06:22.779Z,100830.72
2022-11-24T09:08:50.029Z,100836.38
2022-11-24T09:11:17.267Z,100841.75
2022-11-24T09:13:44.326Z,100840.44
2022-11-24T09:16:19.154Z,100852.88
2022-11-24T09:18:46.677Z,100851.00
2022-11-24T09:21:17.194Z,100860.16
2022-11-24T09:23:45.116Z,100869.28
2022-11-24T09:26:13.203Z,100857.22
2022-11-24T09:28:40.912Z,100868.81
2022-11-24T09:31:10.111Z,100881.22
2022-11-24T09:33:38.381Z,100883.72
2022-11-24T09:36:06.147Z,100882.91
2022-11-24T09:38:33.370Z,100891.81
2022-11-24T09:41:21.417Z,100896.94
2022-11-24T09:44:02.214Z,100889.09
2022-11-24T09:46:33.322Z,100886.16
2022-11-24T09:49:02.936Z,100892.34
2022-11-24T09:51:32.372Z,100901.28
2022-11-24T09:54:09.703Z,100912.09
2022-11-24T09:56:40.534Z,100922.66
2022-11-24T09:59:17.998Z,100926.44
2022-11-24T10:01:46.737Z,100928.88
2022-11-24T10:04:29.046Z,100932.16
2022-11-24T10:07:16.289Z,100934.59
2022-11-24T10:10:19.756Z,100921.66
2022-11-24T10:13:23.106Z,100928.47
2022-11-24T10:16:31.485Z,100922.00
2022-11-24T10:19:16.145Z,100921.53
2022-11-24T10:21:54.903Z,100932.31
2022-11-24T10:24:27.248Z,100930.22
2022-11-24T10:27:13.825Z,100933.72
2022-11-24T10:29:42.179Z,100928.88
2022-11-24T10:32:29.537Z,100925.16
2022-11-24T10:35:00.466Z,100935.94
2022-11-24T10:37:38.099Z,100931.91
2022-11-24T10:40:56.093Z,100930.06
2022-11-24T10:43:19.153Z,100935.47
2022-11-24T10:45:45.722Z,100942.22
2022-11-24T10:48:21.311Z,100940.13
2022-11-24T10:50:47.988Z,100930.13
2022-11-24T10:53:34.464Z,100937.16
2022-11-24T10:56:04.613Z,100938.78
2022-11-24T10:58:37.961Z,100920.47
2022-11-24T11:01:13.942Z,100938.09
2022-11-24T11:03:56.091Z,100926.47
2022-11-24T11:06:24.429Z,100933.50
2022-11-24T11:09:17.579Z,100932.19
2022-11-24T11:11:44.514Z,100935.47
2022-11-24T11:14:12.953Z,100938.16
2022-11-24T11:16:39.495Z,100928.19
2022-11-24T11:19:49.111Z,100945.78
2022-11-24T11:22:24.678Z,100940.13
2022-11-24T11:25:05.542Z,100937.19
2022-11-24T11:27:32.028Z,100940.72
2022-11-24T11:35:50.341Z,100931.06
2022-11-24T11:38:17.127Z,100933.50
2022-11-24T11:40:43.858Z,100946.75
2022-11-24T11:43:18.812Z,100941.09
2022-11-24T11:45:46.589Z,100928.41
2022-11-24T11:48:35.092Z,100939.81
2022-11-24T11:51:25.892Z,100929.81
2022-11-24T11:54:13.899Z,100928.53
2022-11-24T11:56:47.726Z,100940.94
2022-11-24T11:59:34.411Z,100932.59
2022-11-24T12:02:26.792Z,100933.41
2022-11-24T12:05:01.321Z,100937.50
2022-11-24T12:07:37.068Z,100935.63
2022-11-24T12:10:10.803Z,100940.78
2022-11-24T12:12:53.697Z,100937.03
2022-11-24T12:15:23.291Z,100938.66
2022-11-24T12:18:04.969Z,100940.03
2022-11-24T12:20:47.644Z,100946.25
2022-11-24T12:23:36.311Z,100946.00
2022-11-24T12:26:22.659Z,100952.00
2022-11-24T12:28:52.265Z,100949.03
2022-11-24T12:31:31.884Z,100958.78
2022-11-24T12:34:17.001Z,100960.41
2022-11-24T12:36:58.584Z,100973.66
2022-11-24T12:39:33.566Z,100964.53
2022-11-24T12:42:25.816Z,100976.94
2022-11-24T12:45:06.233Z,100972.94
2022-11-24T12:47:49.264Z,100979.97
2022-11-24T12:50:19.518Z,100968.09
2022-11-24T12:53:00.632Z,100970.53
2022-11-24T12:55:28.831Z,100963.03
2022-11-24T12:57:55.365Z,100964.66
2022-11-24T13:00:27.514Z,100960.91
2022-11-24T13:03:17.523Z,100966.06
2022-11-24T13:06:01.261Z,100947.94
2022-11-24T13:08:28.959Z,100950.41
2022-11-24T13:11:21.268Z,100947.47
2022-11-24T13:14:12.774Z,100949.09
2022-11-24T13:17:42.121Z,100943.47
2022-11-24T13:20:20.968Z,100945.94
2022-11-24T13:22:55.553Z,100942.97
2022-11-24T13:25:35.679Z,100931.09
2022-11-24T13:28:04.140Z,100927.31
2022-11-24T13:30:33.372Z,100922.50
2022-11-24T13:33:30.952Z,100934.94
2022-11-24T13:36:04.089Z,100933.06
2022-11-24T13:38:45.900Z,100934.69
2022-11-24T13:41:32.726Z,100930.91
2022-11-24T13:44:17.324Z,100928.78
2022-11-24T13:47:19.466Z,100917.16
2022-11-24T13:49:50.190Z,100909.06
2022-11-24T13:52:43.878Z,100913.97
2022-11-24T13:55:13.035Z,100924.78
2022-11-24T13:57:39.456Z,100911.00
2022-11-24T14:00:18.852Z,100917.22
2022-11-24T14:02:45.886Z,100915.31
2022-11-24T14:05:17.121Z,100909.69
2022-11-24T14:07:49.242Z,100915.91
2022-11-24T14:10:30.334Z,100914.03
2022-11-24T14:13:16.684Z,100906.72
2022-11-24T14:15:43.235Z,100908.34
2022-11-24T14:18:22.641Z,100918.94
2022-11-24T14:20:49.330Z,100918.94
2022-11-24T14:23:15.892Z,100922.44
2022-11-24T14:25:48.218Z,100920.56
2022-11-24T14:28:27.407Z,100910.56
2022-11-24T14:31:07.964Z,100912.22
2022-11-24T14:33:36.714Z,100915.97
2022-11-24T14:36:03.532Z,100913.03
2022-11-24T14:38:30.080Z,100909.50
2022-11-24T14:40:56.687Z,100904.91
2022-11-24T14:43:30.554Z,100903.03
2022-11-24T14:46:01.113Z,100894.91
2022-11-24T14:48:30.691Z,100898.44
2022-11-24T14:51:28.252Z,100904.66
2022-11-24T14:54:04.637Z,100898.44
2022-11-24T14:56:36.800Z,100894.66
2022-11-24T14:59:04.650Z,100901.94
2022-11-24T15:01:34.107Z,100898.97
2022-11-24T15:07:29.026Z,100895.22
2022-11-24T15:09:58.598Z,100885.72
2022-11-24T15:12:36.134Z,100887.88
2022-11-24T15:15:06.713Z,100890.31
2022-11-24T15:17:34.248Z,100888.94
2022-11-24T15:20:09.357Z,100888.69
2022-11-24T15:22:39.133Z,100893.28
2022-11-24T15:25:41.258Z,100893.28
2022-11-24T15:28:09.190Z,100875.19
2022-11-24T15:30:37.041Z,100874.09
2022-11-24T15:33:11.473Z,100877.63
2022-11-24T15:35:38.035Z,100874.09
2022-11-24T15:38:04.657Z,100883.28
2022-11-24T15:40:31.314Z,100877.34
2022-11-24T15:43:00.795Z,100880.31
2022-11-24T15:45:34.304Z,100881.63
2022-11-24T15:48:01.089Z,100882.47
2022-11-24T15:50:27.614Z,100878.94
2022-11-24T15:52:54.063Z,100877.06
2022-11-24T15:55:22.400Z,100881.09
2022-11-24T15:57:49.208Z,100885.19
2022-11-24T16:00:18.807Z,100886.00
2022-11-24T16:02:45.329Z,100905.16
2022-11-24T16:05:13.373Z,100889.75
2022-11-24T16:07:40.256Z,100893.03
2022-11-24T16:10:13.461Z,100890.81
2022-11-24T16:12:40.024Z,100893.78
2022-11-24T16:15:06.961Z,100886.50
2022-11-24T16:17:33.417Z,100892.13
2022-11-24T16:20:00.849Z,100897.53
2022-11-24T16:22:27.512Z,100900.25
2022-11-24T16:24:53.971Z,100908.34
2022-11-24T16:27:20.417Z,100898.38
2022-11-24T16:29:46.962Z,100906.72
2022-11-24T16:32:13.485Z,100900.50
2022-11-24T16:34:39.963Z,100894.28
2022-11-24T16:37:06.477Z,100895.09
2022-11-24T16:39:32.954Z,100902.13
2022-11-24T16:41:59.460Z,100899.69
2022-11-24T16:44:25.959Z,100898.88
2022-11-24T16:46:52.464Z,100903.47
2022-11-24T16:49:18.982Z,100912.63
2022-11-24T16:51:45.577Z,100908.03
2022-11-24T16:54:12.055Z,100898.28
2022-11-24T16:56:38.535Z,100897.47
2022-11-24T16:59:05.060Z,100901.00
2022-11-24T17:01:32.945Z,100909.38
2022-11-24T17:04:00.158Z,100889.38
2022-11-24T17:06:26.907Z,100890.44
2022-11-24T17:08:55.217Z,100878.81
2022-11-24T17:11:23.871Z,100871.53
2022-11-24T17:13:50.695Z,100888.56
2022-11-24T17:16:19.423Z,100891.25
2022-11-24T17:18:46.032Z,100884.22
2022-11-24T17:21:15.478Z,100880.72
2022-11-24T17:23:42.278Z,100888.81
2022-11-24T17:26:12.471Z,100872.59
2022-11-24T17:28:39.415Z,100868.25
2022-11-24T17:31:09.466Z,100868.25
2022-11-24T17:33:36.315Z,100876.63
2022-11-24T17:36:06.280Z,100872.28
2022-11-24T17:38:33.211Z,100865.81
2022-11-24T17:40:59.943Z,100870.41
2022-11-24T17:43:27.525Z,100860.63
2022-11-24T17:45:59.277Z,100860.63
2022-11-24T17:48:25.791Z,100870.41
2022-11-24T17:50:59.265Z,100868.75
2022-11-24T17:53:25.933Z,100865.81
2022-11-24T17:55:52.432Z,100862.53
2022-11-24T17:58:18.884Z,100870.63
2022-11-24T18:00:45.386Z,100858.78
2022-11-24T18:03:11.909Z,100862.53
2022-11-24T18:05:38.380Z,100867.94
2022-11-24T18:08:04.999Z,100858.19
2022-11-24T18:10:34.586Z,100859.81
2022-11-24T18:13:02.137Z,100867.13
2022-11-24T18:15:28.672Z,100862.78
2022-11-24T18:17:55.557Z,100853.88
2022-11-24T18:20:22.040Z,100858.47
2022-11-24T18:23:05.163Z,100862.22
2022-11-24T18:25:33.252Z,100861.16
2022-11-24T18:27:59.822Z,100874.91
2022-11-24T18:30:26.273Z,100863.06
2022-11-24T18:32:52.742Z,100855.19
2022-11-24T18:35:19.222Z,100854.09
2022-11-24T18:37:45.704Z,100852.47
2022-11-24T18:40:12.354Z,100855.19
2022-11-24T18:42:38.910Z,100836.53
2022-11-24T18:45:06.058Z,100840.03
2022-11-24T18:47:33.631Z,100849.78
2022-11-24T18:50:00.292Z,100855.19
2022-11-24T18:52:26.865Z,100852.97
2022-11-24T18:54:53.376Z,100850.03
2022-11-24T18:57:19.922Z,100842.97
2022-11-24T18:59:46.420Z,100850.03
2022-11-24T19:02:13.086Z,100859.19
2022-11-24T19:04:39.617Z,100846.53
2022-11-24T19:07:06.168Z,100836.75
2022-11-24T19:09:32.651Z,100833.25
2022-11-24T19:11:59.989Z,100848.91
2022-11-24T19:14:26.572Z,100851.34
2022-11-24T19:16:53.102Z,100852.44
2022-11-24T19:19:19.662Z,100847.84
2022-11-24T19:21:46.240Z,100834.31
2022-11-24T19:24:15.735Z,100832.69
2022-11-24T19:26:42.247Z,100824.59
2022-11-24T19:29:09.390Z,100840.81
2022-11-24T19:31:38.288Z,100842.44
2022-11-24T19:34:05.982Z,100825.59
2022-11-24T19:36:32.563Z,100830.81
2022-11-24T19:38:59.522Z,100830.19
2022-11-24T19:41:28.537Z,100825.88
2022-11-24T19:43:56.370Z,100822.34
2022-11-24T19:46:27.076Z,100815.88
2022-11-24T19:48:59.769Z,100813.16
2022-11-24T19:51:30.794Z,100812.63
2022-11-24T19:53:57.385Z,100806.13
2022-11-24T19:56:27.028Z,100815.06
2022-11-24T19:58:55.077Z,100823.44
2022-11-24T20:01:27.061Z,100818.56
2022-11-24T20:04:01.992Z,100813.44
2022-11-24T20:06:32.023Z,100831.53
2022-11-24T20:09:00.396Z,100811.78
2022-11-24T20:11:27.966Z,100825.28
2022-11-24T20:13:54.456Z,100814.47
2022-11-24T20:16:26.552Z,100820.72
2022-11-24T20:18:55.260Z,100810.16
2022-11-24T20:21:24.284Z,100816.63
2022-11-24T20:24:01.142Z,100820.97
2022-11-24T20:26:31.091Z,100817.44
2022-11-24T20:28:59.049Z,100813.13
2022-11-24T20:31:29.095Z,100830.94
2022-11-24T20:33:55.756Z,100820.41
2022-11-24T20:36:27.568Z,100820.16
2022-11-24T20:38:54.896Z,100814.75
2022-11-24T20:41:24.521Z,100818.53
2022-11-24T20:43:52.580Z,100824.72
2022-11-24T20:46:24.942Z,100826.03
2022-11-24T20:48:51.977Z,100830.13
2022-11-24T20:51:27.108Z,100823.94
2022-11-24T20:53:59.044Z,100828.50
2022-11-24T20:56:29.314Z,100829.31
2022-11-24T20:58:56.853Z,100823.34
2022-11-24T21:01:28.774Z,100828.75
2022-11-24T21:03:57.925Z,100824.97
2022-11-24T21:06:25.440Z,100828.75
2022-11-24T21:08:52.309Z,100823.59
2022-11-24T21:11:19.897Z,100818.75
2022-11-24T21:13:48.710Z,100814.69
2022-11-24T21:16:15.252Z,100821.72
2022-11-24T21:18:43.068Z,100814.69
2022-11-24T21:21:09.670Z,100819.25
2022-11-24T21:23:36.380Z,100822.78
2022-11-24T21:26:07.392Z,100816.31
2022-11-24T21:28:35.600Z,100822.78
2022-11-24T21:31:07.470Z,100841.44
2022-11-24T21:33:34.488Z,100820.09
2022-11-24T21:36:05.514Z,100807.63
2022-11-24T21:38:32.455Z,100812.22
2022-11-24T21:41:03.515Z,100825.50
2022-11-24T21:43:31.166Z,100821.13
2022-11-24T21:46:08.299Z,100821.41
2022-11-24T21:48:35.925Z,100823.84
2022-11-24T21:51:04.585Z,100820.31
2022-11-24T21:53:33.213Z,100805.75
2022-11-24T21:56:01.807Z,100808.72
2022-11-24T21:58:29.218Z,100807.88
2022-11-24T22:01:02.698Z,100808.72
2022-11-24T22:03:29.480Z,100813.03
2022-11-24T22:05:57.564Z,100802.50
2022-11-24T22:08:25.324Z,100818.69
2022-11-24T22:10:52.467Z,100814.38
2022-11-24T22:13:19.759Z,100815.41
2022-11-24T22:15:46.373Z,100804.38
2022-11-24T22:18:12.822Z,100806.25
2022-11-24T22:20:39.392Z,100801.91
2022-11-24T22:23:05.940Z,100817.88
2022-11-24T22:25:33.704Z,100796.81
2022-11-24T22:28:00.343Z,100808.72
2022-11-24T22:30:26.853Z,100807.88
2022-11-24T22:32:54.056Z,100800.88
2022-11-24T22:35:20.860Z,100818.97
2022-11-24T22:37:47.319Z,100811.41
2022-11-24T22:40:13.820Z,100818.13
2022-11-24T22:42:40.283Z,100800.88
2022-11-24T22:45:07.534Z,100818.97
2022-11-24T22:47:34.029Z,100805.47
2022-11-24T22:50:00.520Z,100806.50
2022-11-24T22:52:26.990Z,100791.69
2022-11-24T22:54:53.466Z,100800.88
2022-11-24T22:57:20.037Z,100804.59
2022-11-24T22:59:46.544Z,100814.59
2022-11-24T23:02:13.050Z,100797.59
2022-11-24T23:04:39.510Z,100794.88
2022-11-24T23:07:05.949Z,100796.50
2022-11-24T23:09:32.837Z,100784.06
2022-11-24T23:11:59.302Z,100793.25
2022-11-24T23:14:26.696Z,100793.00
2022-11-24T23:16:53.930Z,100786.78
2022-11-24T23:19:20.442Z,100779.47
2022-11-24T23:21:46.950Z,100792.44
2022-11-24T23:24:13.576Z,100785.16
2022-11-24T23:26:41.213Z,100779.47
2022-11-24T23:29:08.341Z,100781.38
2022-11-24T23:31:35.520Z,100790.28
2022-11-24T23:34:03.929Z,100796.78
2022-11-24T23:36:31.174Z,100785.16
2022-11-24T23:39:02.866Z,100783.25
2022-11-24T23:41:30.102Z,100780.56
2022-11-24T23:43:56.591Z,100785.16
2022-11-24T23:46:24.417Z,100783.25
2022-11-24T23:48:52.935Z,100787.59
2022-11-24T23:51:22.865Z,100784.06
2022-11-24T23:53:50.525Z,100784.34
2022-11-24T23:56:20.166Z,100798.66
2022-11-24T23:58:46.965Z,100788.66
